West Linton, Indiana
Current Conditions -  °F | °C
As of 3:15 PM on Wednesday 26 Nov 2014 (Local Time) from KDCY Reporting Station
Clear Clear  
Wind Chill: 39°   Ceiling: Unl
Heat Index: 39°   Visibility: 10mi
Dew Point: 28°   Wind: 3mph
Humidity: 65%   Direction: 110°ESE
Pressure: 30.03"   Gusts: NA
Location:  39.0608°N, 87.1852°W
Report Text: KDCY 262015Z AUTO 11003KT 10SM CLR 04/M02 A3003 RMK AO2 T00411020
Loading
Personal Weather Stations






























Interactive Weather Map New forecast layout! Learn more

10-Day Weather Forecast

Advertisements
Track Severe Weather on mobile